地図

経路データ

SID SEASON NUMBER BASIN SUBBASIN NAME ISO_TIME NATURE LAT LON WMO_WIND WMO_PRES WMO_AGENCY TRACK_TYPE DIST2LAND LANDFALL IFLAG USA_AGENCY USA_ATCF_ID USA_LAT USA_LON USA_RECORD USA_STATUS USA_WIND USA_PRES USA_SSHS USA_R34_NE USA_R34_SE USA_R34_SW USA_R34_NW USA_R50_NE USA_R50_SE USA_R50_SW USA_R50_NW USA_R64_NE USA_R64_SE USA_R64_SW USA_R64_NW USA_POCI USA_ROCI USA_RMW USA_EYE TOKYO_LAT TOKYO_LON TOKYO_GRADE TOKYO_WIND TOKYO_PRES TOKYO_R50_DIR TOKYO_R50_LONG TOKYO_R50_SHORT TOKYO_R30_DIR TOKYO_R30_LONG TOKYO_R30_SHORT TOKYO_LAND CMA_LAT CMA_LON CMA_CAT CMA_WIND CMA_PRES HKO_LAT HKO_LON HKO_CAT HKO_WIND HKO_PRES NEWDELHI_LAT NEWDELHI_LON NEWDELHI_GRADE NEWDELHI_WIND NEWDELHI_PRES NEWDELHI_CI NEWDELHI_DP NEWDELHI_POCI REUNION_LAT REUNION_LON REUNION_TYPE REUNION_WIND REUNION_PRES REUNION_TNUM REUNION_CI REUNION_RMW REUNION_R34_NE REUNION_R34_SE REUNION_R34_SW REUNION_R34_NW REUNION_R50_NE REUNION_R50_SE REUNION_R50_SW REUNION_R50_NW REUNION_R64_NE REUNION_R64_SE REUNION_R64_SW REUNION_R64_NW BOM_LAT BOM_LON BOM_TYPE BOM_WIND BOM_PRES BOM_TNUM BOM_CI BOM_RMW BOM_R34_NE BOM_R34_SE BOM_R34_SW BOM_R34_NW BOM_R50_NE BOM_R50_SE BOM_R50_SW BOM_R50_NW BOM_R64_NE BOM_R64_SE BOM_R64_SW BOM_R64_NW BOM_ROCI BOM_POCI BOM_EYE BOM_POS_METHOD BOM_PRES_METHOD NADI_LAT NADI_LON NADI_CAT NADI_WIND NADI_PRES WELLINGTON_LAT WELLINGTON_LON WELLINGTON_WIND WELLINGTON_PRES DS824_LAT DS824_LON DS824_STAGE DS824_WIND DS824_PRES TD9636_LAT TD9636_LON TD9636_STAGE TD9636_WIND TD9636_PRES TD9635_LAT TD9635_LON TD9635_WIND TD9635_PRES TD9635_ROCI NEUMANN_LAT NEUMANN_LON NEUMANN_CLASS NEUMANN_WIND NEUMANN_PRES MLC_LAT MLC_LON MLC_CLASS MLC_WIND MLC_PRES USA_GUST BOM_GUST BOM_GUST_PER REUNION_GUST REUNION_GUST_PER USA_SEAHGT USA_SEARAD_NE USA_SEARAD_SE USA_SEARAD_SW USA_SEARAD_NW STORM_SPEED STORM_DIR
1959198N16088 1959 49 NI BB NOT_NAMED 1959-07-16 18:00:00 TS 16.4000 87.6000 main 416 379 O________O____ jtwc_io IO061959 16.4000 87.6000 -1 16.4000 87.6000 TC 9 0
1959198N16088 1959 49 NI BB NOT_NAMED 1959-07-16 21:00:00 TS 16.8225 87.6000 main 379 337 P________P____ IO061959 16.8225 87.6000 -1 16.8225 87.6000 TC 8 1
1959198N16088 1959 49 NI BB NOT_NAMED 1959-07-17 00:00:00 TS 17.2000 87.6000 main 337 306 O________O____ jtwc_io IO061959 17.2000 87.6000 -1 17.2000 87.6000 TC 25 7 0
1959198N16088 1959 49 NI BB NOT_NAMED 1959-07-17 03:00:00 TS 17.4956 87.6000 main 306 286 P________PO___ IO061959 17.4950 87.6000 -1 17.4950 87.6000 TC 25 17.5000 87.6000 1 5 0
1959198N16088 1959 49 NI BB NOT_NAMED 1959-07-17 06:00:00 TS 17.6881 87.6000 main 286 276 O________OP___ jtwc_io IO061959 17.7000 87.6000 -1 17.7000 87.6000 TC 25 17.6406 87.6000 1 3 356
1959198N16088 1959 49 NI BB NOT_NAMED 1959-07-17 09:00:00 TS 17.8014 87.6000 main 276 266 P________PP___ IO061959 17.8075 87.6000 -1 17.8075 87.6000 TC 25 17.7850 87.6000 1 2 0
1959198N16088 1959 49 NI BB NOT_NAMED 1959-07-17 12:00:00 TS 17.9123 87.6000 main 266 247 O________OP___ jtwc_io IO061959 17.9000 87.6000 -1 17.9000 87.6000 TC 25 17.9369 87.6000 1 3 0
1959198N16088 1959 49 NI BB NOT_NAMED 1959-07-17 15:00:00 TS 18.0900 87.6000 main 247 228 P________PO___ IO061959 18.0850 87.6000 -1 18.0850 87.6000 TC 25 18.1000 87.6000 1 4 0
1959198N16088 1959 49 NI BB NOT_NAMED 1959-07-17 18:00:00 TS 18.2925 87.6000 main 228 209 O________OP___ jtwc_io IO061959 18.3000 87.6000 -1 18.3000 87.6000 TC 25 18.2775 87.6000 1 4 0
1959198N16088 1959 49 NI BB NOT_NAMED 1959-07-17 21:00:00 TS 18.4900 87.6000 main 209 192 P________PP___ IO061959 18.5000 87.6000 -1 18.5000 87.6000 TC 25 18.4700 87.6000 1 4 0
1959198N16088 1959 49 NI BB NOT_NAMED 1959-07-18 00:00:00 TS 18.6925 87.6000 main 192 175 O________OP___ jtwc_io IO061959 18.7000 87.6000 -1 18.7000 87.6000 TC 25 18.6775 87.6000 1 4 0
1959198N16088 1959 49 NI BB NOT_NAMED 1959-07-18 03:00:00 TS 18.8900 87.6000 main 175 161 P________PO___ IO061959 18.8850 87.6000 -1 18.8850 87.6000 TC 25 18.9000 87.6000 1 4 2
1959198N16088 1959 49 NI BB NOT_NAMED 1959-07-18 06:00:00 TS 19.1146 87.6013 main 161 137 O________OP___ jtwc_io IO061959 19.1000 87.6000 -1 19.1000 87.6000 TC 25 19.1437 87.6040 1 5 0
1959198N16088 1959 49 NI BB NOT_NAMED 1959-07-18 09:00:00 TS 19.4000 87.6025 main 137 115 P________PP___ IO061959 19.4000 87.6000 -1 19.4000 87.6000 TC 25 19.4000 87.6074 1 6 0
1959198N16088 1959 49 NI BB NOT_NAMED 1959-07-18 12:00:00 TS 19.6854 87.6024 main 115 104 O________OP___ jtwc_io IO061959 19.7000 87.6000 -1 19.7000 87.6000 TC 25 19.6562 87.6071 1 5 0
1959198N16088 1959 49 NI BB NOT_NAMED 1959-07-18 15:00:00 TS 19.9100 87.6050 main 104 91 P________PO___ IO061959 19.9150 87.6075 -1 19.9150 87.6075 TC 25 19.9000 87.6000 1 4 0
1959198N16088 1959 49 NI BB NOT_NAMED 1959-07-18 18:00:00 TS 20.1088 87.5935 main 91 76 O________OP___ jtwc_io IO061959 20.1000 87.6000 -1 20.1000 87.6000 TC 25 20.1219 87.5838 1 4 355
1959198N16088 1959 49 NI BB NOT_NAMED 1959-07-18 21:00:00 TS 20.3079 87.5601 main 76 56 P________PP___ IO061959 20.2950 87.5601 -1 20.2950 87.5601 TC 25 20.3250 87.5601 1 4 350
1959198N16088 1959 49 NI BB NOT_NAMED 1959-07-19 00:00:00 TS 20.5078 87.5157 main 56 52 O________OP___ jtwc_io IO061959 20.5000 87.5000 -1 20.5000 87.5000 TC 25 20.5156 87.5313 1 4 352
1959198N16088 1959 49 NI BB NOT_NAMED 1959-07-19 03:00:00 NR 20.7000 87.5000 main 52 __________O___ IO061959 -1 TC 20.7000 87.5000 1 4 353

IBTrACS Databaseについて

本データベースは、米国NOAAが公開する1842年以降の世界の熱帯低気圧のベストトラックデータアーカイブInternational Best Track Archive for Climate Stewardship (IBTrACS)を、ウェブで閲覧しやすい形式に変換したものです。

最終更新日:2021-12-03